Share

Buckland, AK

Selawik (PASK) Elev 26 ft | 66.60 °N, 159.99 °W | Change Station

Current weather conditions updated 7 minutes ago

Clear
Clear
36 °F
Feels Like 32 °F
N
5
Wind Variable Wind from NE
Sunrise 6:47 AM
Sunset 10:41 PM
Moon Waning Gibbous

Today is forecast to be nearly the same temperature as yesterday.

Pressure 29.75 in
Visibility 10.0 miles
Clouds Clear
Windchill 32 °F
Dew Point 30 °F
Humidity 81%
Rainfall 0.00 in
Snow Depth Not available.
UV 4 out of 16
Pollen Not available.
Air Quality Not available.
Flu Activity Sporadic
METAR PASK 192236Z AUTO 05004KT 10SM CLR 02/M01 A2975 RMK AO1

More Conditions Fewer Conditions

Pressure 29.75 in
Visibility 10.0 miles
Clouds Clear
Windchill 32 °F
Dew Point 30 °F
Humidity 81%
Rainfall 0.00 in
Snow Depth Not available.
UV 4 out of 16
Pollen Not available.
Air Quality Not available.
Flu Activity Sporadic
METAR PASK 192236Z AUTO 05004KT 10SM CLR 02/M01 A2975 RMK AO1

More Conditions Fewer Conditions

10-Day Weather Forecast

Almanac

Astronomy

Apr. 19, 2014 Rise Set
Actual Time 6:47 AM AKDT 10:41 PM AKDT
Civil Twilight 5:43 AM AKDT 11:47 PM AKDT
Nautical Twilight 3:42 AM AKDT 1:58 AM AKDT
Astronomical Twilight Sun does not rise Sun does not rise
Moon 3:44 AM AKDT 9:09 AM AKDT
Length of Visible Light 18h 04m
Length of Day
15h 53m
Tomorrow will be 7m 25s longer.
Waning Gibbous, 76% of the Moon is Illuminated
Today
Waning Gibbous
Apr 22
Last Quarter
Apr 29
New
May 6
First Quarter
May 14
Full

Today's Extremes

State Highs State Lows

Community

  • Happy Easter WU friends!!!!
    Happy Easter WU friends!!!!
  • Skirting the Horizon
    Skirting the Horizon
  • Piriapolis
    Piriapolis
  • A Glorious Morning
    A Glorious Morning
  • Tender Rays Of Hope
    Tender Rays Of Hope

WunderPhotos

Upload Photos

1,702,944 photos uploaded!

WunderBlogs® & News

Nearby

Snow Depth

Station Depth Elevation
Pargon Creek 2 in 300 ft
Rocky Point 5 in 500 ft
Gobblers Knob 8 in 2030 ft
Coldfoot 23 in 1040 ft
Atigun Pass 37 in 4800 ft

Coastal Water Temperatures

Place Temperature
No Stations Reporting

Earthquake Activity

City Distance Mag. Time & Date
No recent earthquake activity has been reported nearby.
Minimum magnitude displayed is 2.5.

Nearby Weather Stations

Station Location Temp. Windchill Dew Point Humidity Wind Precip. Elev Updated Type
RAWS BUCKLAND UPLANDS AK, Buckland, AK 43 °F 39 °F 30 °F 60% East  at  6 mph 0.00 in / hr 399 ft 1:21 PM AKDT MADIS

Show More Stations Show Fewer Stations

What do you think?

We're not finished. Please let us know what you like, what you don't like, and what you are still missing.